Time;durP1;ratioP1;P1;durP2;ratioP2;P2;SDS_P1;SDS_P2;PMS_P1;PMS_P2;Temp;Humidity;BMP_temperature;BMP_pressure;BME280_temperature;BME280_humidity;BME280_pressure;Samples;Min_cycle;Max_cycle;Signal;HPM_P1;HPM_P2
2021/01/07 00:02:12;;;;;;;6.15;3.00;;;;;;;0.86;98.15;101352.13;5061445;28;20128;-63
2021/01/07 00:04:38;;;;;;;7.15;3.25;;;;;;;0.84;97.97;101351.31;5062194;28;20498;-63
2021/01/07 00:07:05;;;;;;;5.95;3.47;;;;;;;0.81;98.25;101351.44;5062789;28;20932;-62
2021/01/07 00:09:31;;;;;;;6.70;3.42;;;;;;;0.78;98.37;101346.25;5062040;28;20437;-63
2021/01/07 00:11:57;;;;;;;6.82;3.22;;;;;;;0.87;98.38;101351.22;5060895;28;20060;-63
2021/01/07 00:14:23;;;;;;;7.63;3.45;;;;;;;0.87;98.06;101348.56;5062565;28;20417;-63
2021/01/07 00:16:49;;;;;;;5.70;3.03;;;;;;;0.88;98.13;101350.28;5063208;28;20041;-62
2021/01/07 00:19:16;;;;;;;9.18;3.95;;;;;;;0.86;98.19;101344.19;5059240;28;20084;-63
2021/01/07 00:21:42;;;;;;;7.22;3.33;;;;;;;0.84;98.42;101344.25;5061049;28;20049;-63
2021/01/07 00:24:09;;;;;;;6.80;3.80;;;;;;;0.88;98.03;101339.66;5060829;28;20056;-63
2021/01/07 00:26:35;;;;;;;7.13;3.53;;;;;;;0.89;98.25;101341.41;5061042;28;20045;-63
2021/01/07 00:29:01;;;;;;;6.43;3.78;;;;;;;0.93;98.59;101345.66;5061979;28;20044;-62
2021/01/07 00:31:28;;;;;;;7.15;3.95;;;;;;;0.92;98.24;101346.56;5061390;28;20053;-63
2021/01/07 00:33:53;;;;;;;9.15;4.05;;;;;;;0.92;98.72;101340.41;5059050;28;20402;-63
2021/01/07 00:36:20;;;;;;;6.80;3.85;;;;;;;0.93;98.67;101343.00;5057723;28;20049;-63
2021/01/07 00:38:46;;;;;;;6.57;3.28;;;;;;;0.95;98.48;101340.28;5058196;28;20133;-63
2021/01/07 00:41:18;;;;;;;5.72;3.28;;;;;;;0.92;98.45;101338.63;5058334;28;20048;-63
2021/01/07 00:43:44;;;;;;;9.15;4.55;;;;;;;0.87;98.93;101335.31;5058127;28;20048;-63
2021/01/07 00:46:10;;;;;;;8.77;4.18;;;;;;;0.87;98.81;101330.00;5059595;28;20127;-63
2021/01/07 00:48:36;;;;;;;7.25;3.78;;;;;;;0.86;98.95;101328.28;5060190;28;20512;-62
2021/01/07 00:51:02;;;;;;;12.38;4.38;;;;;;;0.87;99.23;101328.22;5060128;28;20053;-63
2021/01/07 00:53:27;;;;;;;8.30;4.07;;;;;;;0.94;99.13;101333.25;5061431;28;20077;-63
2021/01/07 00:55:53;;;;;;;9.82;4.90;;;;;;;0.90;98.56;101327.22;5060322;28;20052;-63
2021/01/07 00:58:20;;;;;;;9.50;5.38;;;;;;;0.89;98.84;101322.84;5059991;28;20056;-63
2021/01/07 01:00:46;;;;;;;11.35;5.30;;;;;;;0.95;99.11;101333.19;5060821;28;20052;-63
2021/01/07 01:03:13;;;;;;;11.68;5.03;;;;;;;0.97;98.82;101334.00;5057690;28;20040;-63
2021/01/07 01:05:39;;;;;;;9.35;5.30;;;;;;;1.00;98.76;101325.94;5056471;28;20045;-63
2021/01/07 01:08:05;;;;;;;12.20;5.85;;;;;;;0.91;98.62;101321.00;5055309;28;20063;-63
2021/01/07 01:10:31;;;;;;;10.45;5.45;;;;;;;0.89;98.80;101320.19;5059764;28;20059;-63
2021/01/07 01:12:57;;;;;;;8.80;4.95;;;;;;;0.90;98.83;101318.41;5058687;28;20059;-63
2021/01/07 01:15:24;;;;;;;9.68;5.40;;;;;;;0.92;98.87;101328.03;5060959;28;20049;-63
2021/01/07 01:17:50;;;;;;;10.00;4.30;;;;;;;0.96;99.22;101328.78;5058739;28;20048;-63
2021/01/07 01:20:16;;;;;;;10.77;5.15;;;;;;;0.91;99.30;101320.13;5059134;28;20049;-62
2021/01/07 01:22:44;;;;;;;9.18;4.78;;;;;;;0.92;98.78;101317.41;5059662;28;20045;-63
2021/01/07 01:25:11;;;;;;;9.68;4.38;;;;;;;0.92;98.95;101314.78;5059424;28;20102;-63
2021/01/07 01:27:38;;;;;;;10.65;4.53;;;;;;;0.85;98.79;101322.13;5056769;28;20103;-63
2021/01/07 01:30:05;;;;;;;9.02;4.57;;;;;;;0.84;99.21;101319.50;5057219;28;20056;-63
2021/01/07 01:32:32;;;;;;;13.50;5.30;;;;;;;0.92;98.98;101311.28;5039026;28;535368;-63
2021/01/07 01:34:58;;;;;;;9.32;4.20;;;;;;;0.85;99.13;101315.94;5057291;28;20045;-63
2021/01/07 01:37:24;;;;;;;9.02;3.70;;;;;;;0.94;98.74;101312.06;5059106;28;20045;-63
2021/01/07 01:39:50;;;;;;;6.15;3.85;;;;;;;0.99;99.15;101312.75;5057561;28;20049;-63
2021/01/07 01:42:22;;;;;;;8.70;4.32;;;;;;;0.93;98.54;101316.50;5059810;28;21170;-63
2021/01/07 01:44:48;;;;;;;8.05;3.92;;;;;;;0.86;98.57;101315.03;5057918;28;20052;-63
2021/01/07 01:47:14;;;;;;;8.23;4.47;;;;;;;0.90;98.79;101311.34;5057293;28;20060;-63
2021/01/07 01:49:41;;;;;;;7.45;4.05;;;;;;;0.94;99.05;101318.22;5058142;28;20433;-63
2021/01/07 01:52:07;;;;;;;7.93;3.55;;;;;;;0.93;98.43;101313.84;5057659;28;20041;-63
2021/01/07 01:54:33;;;;;;;8.05;3.97;;;;;;;0.90;98.52;101310.44;5057547;28;20056;-63
2021/01/07 01:57:01;;;;;;;7.80;3.50;;;;;;;0.92;98.73;101306.81;5056981;28;20096;-63
2021/01/07 01:59:30;;;;;;;7.30;3.65;;;;;;;0.97;98.79;101311.94;5059506;28;20040;-63
2021/01/07 02:02:03;;;;;;;8.60;4.07;;;;;;;0.98;99.22;101311.88;5056753;28;20044;-63
2021/01/07 02:04:29;;;;;;;7.22;3.60;;;;;;;1.01;98.97;101306.44;5058580;28;20045;-63
2021/01/07 02:06:57;;;;;;;6.43;3.15;;;;;;;0.90;98.91;101300.72;5060041;28;20064;-63
2021/01/07 02:09:23;;;;;;;8.57;3.47;;;;;;;0.87;98.97;101299.06;5057770;28;20049;-63
2021/01/07 02:11:50;;;;;;;7.18;3.47;;;;;;;0.86;98.58;101309.72;5057777;28;20037;-63
2021/01/07 02:14:15;;;;;;;5.90;3.58;;;;;;;0.88;98.53;101307.88;5059296;28;20057;-63
2021/01/07 02:16:41;;;;;;;6.65;3.60;;;;;;;0.93;99.04;101302.38;5056328;28;20102;-63
2021/01/07 02:19:07;;;;;;;5.38;3.28;;;;;;;0.99;98.61;101308.28;5058348;28;20489;-62
2021/01/07 02:21:37;;;;;;;6.90;3.58;;;;;;;0.95;99.02;101305.84;5057995;28;20080;-63
2021/01/07 02:24:04;;;;;;;6.78;3.70;;;;;;;1.00;98.66;101304.72;5056628;28;20045;-63
2021/01/07 02:26:30;;;;;;;5.70;3.38;;;;;;;0.90;98.29;101303.38;5058790;28;20041;-63
2021/01/07 02:28:56;;;;;;;8.38;4.68;;;;;;;0.94;98.87;101299.66;5058110;28;20094;-63
2021/01/07 02:31:21;;;;;;;6.60;3.25;;;;;;;0.95;98.40;101290.78;5056029;28;20072;-63
2021/01/07 02:33:48;;;;;;;7.15;3.53;;;;;;;0.93;98.42;101289.13;5057071;28;20044;-63
2021/01/07 02:36:14;;;;;;;9.50;3.63;;;;;;;0.91;98.52;101296.28;5059698;28;20057;-62
2021/01/07 02:38:41;;;;;;;6.18;3.58;;;;;;;0.89;99.04;101284.91;5059479;28;20056;-63
2021/01/07 02:41:08;;;;;;;7.05;3.53;;;;;;;0.93;98.61;101292.66;5057615;28;20045;-63
2021/01/07 02:43:34;;;;;;;7.03;3.80;;;;;;;0.97;98.96;101283.66;5057816;28;20048;-63
2021/01/07 02:46:00;;;;;;;7.78;3.80;;;;;;;0.99;98.66;101292.38;5057856;28;20397;-63
2021/01/07 02:48:26;;;;;;;7.32;3.53;;;;;;;0.96;98.95;101289.03;5058830;28;20052;-63
2021/01/07 02:50:52;;;;;;;8.60;3.85;;;;;;;0.95;98.29;101284.63;5055633;28;20045;-63
2021/01/07 02:53:18;;;;;;;7.20;3.65;;;;;;;0.90;98.71;101284.84;5057493;28;20060;-63
2021/01/07 02:55:45;;;;;;;9.70;4.47;;;;;;;0.84;98.82;101283.28;5059327;28;20052;-63
2021/01/07 02:58:11;;;;;;;7.07;3.95;;;;;;;0.83;98.67;101284.22;5057395;28;20045;-63
2021/01/07 03:00:37;;;;;;;8.00;4.03;;;;;;;0.81;98.29;101282.53;5057095;28;20048;-63
2021/01/07 03:03:03;;;;;;;8.60;3.80;;;;;;;0.81;98.58;101277.25;5057348;28;20054;-63
2021/01/07 03:05:29;;;;;;;11.38;3.83;;;;;;;0.78;98.81;101266.78;5057496;28;20509;-63
2021/01/07 03:07:55;;;;;;;10.73;4.10;;;;;;;0.79;98.46;101263.19;5062352;28;20048;-63
2021/01/07 03:10:21;;;;;;;9.88;4.38;;;;;;;0.72;99.18;101269.69;5061787;28;20103;-63
2021/01/07 03:12:48;;;;;;;10.45;3.70;;;;;;;0.77;98.95;101265.91;5059760;28;20056;-63
2021/01/07 03:15:14;;;;;;;5.60;3.38;;;;;;;0.79;98.90;101266.72;5066744;22;20458;-63
2021/01/07 03:17:39;;;;;;;7.97;3.65;;;;;;;0.74;98.67;101267.81;5021716;28;20042;-63
2021/01/07 03:20:11;;;;;;;7.25;3.72;;;;;;;0.72;98.97;101261.72;5021151;28;20042;-63
2021/01/07 03:22:37;;;;;;;6.63;3.95;;;;;;;0.61;98.84;101255.09;5023624;28;20132;-63
2021/01/07 03:25:03;;;;;;;6.45;3.65;;;;;;;0.61;98.95;101257.72;5020439;28;20053;-64
2021/01/07 03:27:29;;;;;;;7.53;3.80;;;;;;;0.63;98.98;101255.91;5021830;28;20049;-63
2021/01/07 03:29:56;;;;;;;7.93;3.83;;;;;;;0.67;98.94;101253.97;5019994;28;20495;-63
2021/01/07 03:34:53;;;;;;;6.15;3.22;;;;;;;0.64;98.57;101249.66;5068284;22;20059;-63
2021/01/07 03:37:19;;;;;;;9.60;3.28;;;;;;;0.64;99.25;101249.66;5059176;28;20052;-63
2021/01/07 03:39:45;;;;;;;7.07;3.53;;;;;;;0.63;98.57;101250.59;5059787;28;20055;-63
2021/01/07 03:42:11;;;;;;;8.85;3.72;;;;;;;0.62;99.00;101243.56;5060740;28;20413;-63
2021/01/07 03:44:37;;;;;;;8.30;3.80;;;;;;;0.63;98.81;101247.97;5061696;28;20059;-63
2021/01/07 03:47:04;;;;;;;8.25;3.75;;;;;;;0.60;99.13;101248.06;5061919;28;20060;-63
2021/01/07 03:49:30;;;;;;;9.52;4.03;;;;;;;0.70;99.28;101244.09;5059864;28;20048;-63
2021/01/07 03:51:56;;;;;;;8.45;3.85;;;;;;;0.69;99.14;101241.50;5060122;28;20448;-63
2021/01/07 03:54:21;;;;;;;8.07;4.00;;;;;;;0.67;98.81;101246.03;5060410;28;20079;-63
2021/01/07 03:56:47;;;;;;;9.93;4.60;;;;;;;0.65;99.02;101240.78;5060305;28;20048;-63
2021/01/07 03:59:13;;;;;;;10.00;4.35;;;;;;;0.61;98.83;101247.13;5061231;28;20041;-63
2021/01/07 04:01:39;;;;;;;8.57;4.45;;;;;;;0.69;99.17;101242.41;5060341;28;20049;-63
2021/01/07 04:04:06;;;;;;;9.43;4.53;;;;;;;0.68;98.95;101238.00;5056956;28;20045;-63
2021/01/07 04:06:32;;;;;;;8.20;4.78;;;;;;;0.69;99.11;101237.09;5060387;28;20041;-63
2021/01/07 04:08:58;;;;;;;11.93;4.78;;;;;;;0.79;98.92;101236.72;5062237;28;20052;-63
2021/01/07 04:11:24;;;;;;;8.27;4.80;;;;;;;0.77;99.39;101233.28;5060948;28;20059;-63
2021/01/07 04:13:50;;;;;;;10.35;5.68;;;;;;;0.68;99.29;101229.22;5059619;28;20071;-63
2021/01/07 04:16:16;;;;;;;9.45;5.00;;;;;;;0.73;99.18;101242.28;5059646;28;20060;-63
2021/01/07 04:18:42;;;;;;;9.00;5.28;;;;;;;0.69;98.94;101231.81;5059664;28;20049;-63
2021/01/07 04:21:08;;;;;;;13.77;5.88;;;;;;;0.74;99.27;101228.06;5061572;28;20056;-63
2021/01/07 04:23:34;;;;;;;12.00;6.70;;;;;;;0.73;99.12;101226.38;5059278;28;20052;-63
2021/01/07 04:26:02;;;;;;;14.57;7.88;;;;;;;0.69;98.88;101223.84;5058817;28;20068;-63
2021/01/07 04:28:28;;;;;;;12.95;7.72;;;;;;;0.79;99.31;101232.25;5061508;28;20049;-63
2021/01/07 04:30:54;;;;;;;15.30;8.63;;;;;;;0.69;99.33;101218.56;5060296;28;20130;-63
2021/01/07 04:33:20;;;;;;;18.90;9.43;;;;;;;0.73;99.29;101221.06;5059402;28;20041;-62
2021/01/07 04:35:46;;;;;;;16.63;8.40;;;;;;;0.69;99.56;101226.50;5060525;28;20141;-63
2021/01/07 04:38:13;;;;;;;22.45;10.10;;;;;;;0.73;99.46;101218.44;5057101;28;20045;-64
2021/01/07 04:40:39;;;;;;;17.55;9.70;;;;;;;0.73;99.08;101221.94;5061514;28;20049;-63
2021/01/07 04:43:05;;;;;;;19.02;10.05;;;;;;;0.74;99.23;101222.78;5057631;28;20056;-63
2021/01/07 04:45:31;;;;;;;17.35;10.70;;;;;;;0.76;99.40;101220.94;5060332;28;20049;-63
2021/01/07 04:47:57;;;;;;;20.73;11.13;;;;;;;0.76;99.08;101216.50;5060158;28;20052;-63
2021/01/07 04:50:23;;;;;;;23.85;11.65;;;;;;;0.82;99.56;101218.03;5059686;28;20761;-64
2021/01/07 04:52:49;;;;;;;20.23;11.13;;;;;;;0.82;99.56;101215.38;5059244;28;20075;-64
2021/01/07 04:55:16;;;;;;;21.58;12.27;;;;;;;0.80;99.17;101211.94;5058687;28;20124;-64
2021/01/07 04:57:42;;;;;;;22.38;12.20;;;;;;;0.78;99.79;101213.78;5059643;28;20493;-63
2021/01/07 05:00:10;;;;;;;26.67;13.70;;;;;;;0.77;99.92;101206.78;5058568;28;20048;-63
2021/01/07 05:02:37;;;;;;;22.08;12.07;;;;;;;0.79;99.69;101211.06;5058862;28;20379;-63
2021/01/07 05:05:05;;;;;;;24.92;14.02;;;;;;;0.79;99.82;101205.75;5058907;28;20048;-63
2021/01/07 05:07:31;;;;;;;21.92;12.50;;;;;;;0.81;99.73;101203.03;5058224;28;20053;-63
2021/01/07 05:10:03;;;;;;;27.58;14.07;;;;;;;0.81;99.71;101206.59;5056629;28;20044;-63
2021/01/07 05:12:30;;;;;;;23.90;12.80;;;;;;;0.83;99.58;101201.22;5060373;28;20048;-63
2021/01/07 05:14:56;;;;;;;26.63;13.73;;;;;;;0.86;99.43;101196.63;5059586;28;20415;-63
2021/01/07 05:17:22;;;;;;;23.30;12.68;;;;;;;0.92;99.53;101198.16;5057894;28;20106;-63
2021/01/07 05:19:48;;;;;;;23.50;13.05;;;;;;;0.91;99.73;101193.78;5074510;23;20504;-63
2021/01/07 05:22:14;;;;;;;27.45;14.15;;;;;;;0.87;99.84;101198.38;5060611;28;20448;-63
2021/01/07 05:24:40;;;;;;;23.23;12.73;;;;;;;0.92;99.37;101197.31;5059897;28;20049;-64
2021/01/07 05:27:08;;;;;;;26.00;13.85;;;;;;;0.91;99.82;101196.44;5059027;28;20106;-63
2021/01/07 05:29:36;;;;;;;22.15;12.82;;;;;;;0.97;99.54;101193.53;5058274;28;20098;-63
2021/01/07 05:32:02;;;;;;;21.33;12.93;;;;;;;0.97;99.28;101197.97;5056061;28;20057;-63
2021/01/07 05:34:28;;;;;;;23.75;12.60;;;;;;;0.92;99.32;101192.88;5058075;28;20052;-63
2021/01/07 05:36:58;;;;;;;24.63;13.23;;;;;;;0.97;99.60;101196.19;5059336;28;20492;-63
2021/01/07 05:39:32;;;;;;;21.50;12.43;;;;;;;0.99;99.48;101186.38;5059899;28;20128;-63
2021/01/07 05:42:01;;;;;;;19.98;12.43;;;;;;;1.00;99.60;101188.09;5060361;28;20056;-64
2021/01/07 05:44:31;;;;;;;21.37;12.07;;;;;;;1.02;99.91;101191.53;5059013;28;20048;-63
2021/01/07 05:46:58;;;;;;;20.05;11.32;;;;;;;1.05;99.54;101180.78;5056642;28;20052;-63
2021/01/07 05:49:35;;;;;;;18.05;11.55;;;;;;;1.09;99.47;101183.31;5057476;28;20055;-63
2021/01/07 05:52:05;;;;;;;23.02;12.32;;;;;;;1.10;100.00;101193.00;5060405;28;20131;-63
2021/01/07 05:54:32;;;;;;;20.95;12.10;;;;;;;1.09;99.76;101188.63;5053472;28;20120;-63
2021/01/07 05:57:01;;;;;;;21.70;12.50;;;;;;;1.04;99.67;101181.72;5060262;28;20056;-63
2021/01/07 05:59:31;;;;;;;20.45;12.35;;;;;;;1.07;99.43;101187.84;5058166;28;20055;-63
2021/01/07 06:01:59;;;;;;;;;;;;;;;1.07;99.96;101185.19;5057860;28;20053;-63
2021/01/07 06:04:27;;;;;;;22.83;12.15;;;;;;;1.07;99.54;101186.03;5057193;28;19928;-63
2021/01/07 06:06:53;;;;;;;25.35;13.80;;;;;;;1.02;99.67;101172.97;5057603;28;20052;-63
2021/01/07 06:09:20;;;;;;;27.02;13.73;;;;;;;1.03;100.00;101176.47;5059595;28;20053;-63
2021/01/07 06:11:49;;;;;;;22.10;13.02;;;;;;;1.08;100.00;101187.75;5058257;28;20044;-63
2021/01/07 06:14:15;;;;;;;22.58;13.45;;;;;;;1.04;99.77;101184.38;5058701;28;20049;-63
2021/01/07 06:16:43;;;;;;;22.80;13.35;;;;;;;1.07;100.00;101182.53;5056875;28;20375;-63
2021/01/07 06:19:35;;;;;;;24.23;13.25;;;;;;;1.05;99.85;101169.34;5058445;28;20131;-63
2021/01/07 06:22:02;;;;;;;25.55;13.65;;;;;;;1.09;99.90;101170.94;5056750;28;20048;-63
2021/01/07 06:24:30;;;;;;;22.88;11.98;;;;;;;1.14;100.00;101176.03;5054965;28;20051;-63
2021/01/07 06:26:56;;;;;;;22.67;11.70;;;;;;;1.14;99.76;101178.69;5056446;28;20116;-63
2021/01/07 06:29:22;;;;;;;22.83;12.43;;;;;;;1.11;99.78;101174.38;5059810;28;20053;-63
2021/01/07 06:31:56;;;;;;;21.17;12.25;;;;;;;1.15;99.86;101172.44;5059571;28;20091;-63
2021/01/07 06:34:26;;;;;;;22.33;12.02;;;;;;;1.22;100.00;101179.19;5056094;28;20132;-63
2021/01/07 06:36:54;;;;;;;21.40;11.30;;;;;;;1.18;99.67;101173.16;5057833;28;20553;-62
2021/01/07 06:39:21;;;;;;;20.88;11.63;;;;;;;1.16;100.00;101176.81;5058049;28;20399;-63
2021/01/07 06:41:53;;;;;;;18.27;10.88;;;;;;;1.17;99.62;101171.44;5057391;28;20473;-63
2021/01/07 06:44:20;;;;;;;16.85;10.82;;;;;;;1.17;100.00;101170.59;5056631;28;20136;-63
2021/01/07 06:46:48;;;;;;;21.40;10.48;;;;;;;1.18;100.00;101172.31;5057473;28;20055;-63
2021/01/07 06:49:25;;;;;;;18.67;10.73;;;;;;;1.27;99.75;101166.59;5058047;28;20048;-63
2021/01/07 06:51:58;;;;;;;13.88;9.18;;;;;;;1.31;100.00;101165.53;5057167;28;20477;-63
2021/01/07 06:56:54;;;;;;;17.58;9.35;;;;;;;1.25;100.00;101163.13;5068002;22;20128;-62
2021/01/07 06:59:22;;;;;;;16.65;9.57;;;;;;;1.21;99.49;101165.09;5058121;28;20788;-63
2021/01/07 07:01:50;;;;;;;14.90;8.32;;;;;;;1.19;100.00;101168.72;5057105;28;20053;-63
2021/01/07 07:04:25;;;;;;;17.83;8.63;;;;;;;1.21;99.95;101158.94;5057795;28;20501;-63
2021/01/07 07:06:58;;;;;;;14.65;8.80;;;;;;;1.22;100.00;101158.84;5057039;28;20080;-63
2021/01/07 07:09:25;;;;;;;16.88;9.02;;;;;;;1.23;100.00;101160.56;5057169;28;20065;-63
2021/01/07 07:11:55;;;;;;;14.30;8.68;;;;;;;1.21;100.00;101161.56;5057141;28;20045;-62
2021/01/07 07:14:22;;;;;;;14.18;7.63;;;;;;;1.20;99.89;101168.66;5056882;28;20501;-64
2021/01/07 07:16:49;;;;;;;11.85;8.00;;;;;;;1.21;100.00;101174.84;5058982;28;20119;-63
2021/01/07 07:19:26;;;;;;;11.70;6.57;;;;;;;1.23;100.00;101176.47;5056839;28;20048;-63
2021/01/07 07:22:00;;;;;;;12.63;6.40;;;;;;;1.22;99.72;101163.28;5056203;28;20071;-63
2021/01/07 07:24:49;;;;;;;12.40;6.45;;;;;;;1.23;99.87;101162.34;5056484;28;20126;-63
2021/01/07 07:27:15;;;;;;;12.87;6.90;;;;;;;1.19;99.82;101171.38;5057995;28;20489;-63
2021/01/07 07:29:45;;;;;;;12.02;6.88;;;;;;;1.13;99.68;101167.19;5055697;28;20044;-63
2021/01/07 07:32:21;;;;;;;11.07;6.20;;;;;;;1.13;99.82;101172.50;5056377;28;20482;-64
2021/01/07 07:34:49;;;;;;;11.88;6.53;;;;;;;1.13;99.99;101169.00;5056520;28;20059;-63
2021/01/07 07:37:22;;;;;;;11.55;5.75;;;;;;;1.14;99.70;101176.03;5055931;28;20055;-63
2021/01/07 07:39:50;;;;;;;10.60;6.25;;;;;;;1.09;100.00;101170.06;5058489;28;20056;-63
2021/01/07 07:42:17;;;;;;;11.07;7.18;;;;;;;1.05;99.74;101175.50;5052485;28;20059;-63
2021/01/07 07:44:43;;;;;;;10.98;6.40;;;;;;;1.04;99.75;101173.75;5057191;28;20057;-63
2021/01/07 07:47:09;;;;;;;12.52;6.70;;;;;;;1.03;100.00;101177.38;5056961;28;20052;-63
2021/01/07 07:49:35;;;;;;;9.88;6.78;;;;;;;1.03;100.00;101179.13;5058056;28;20048;-63
2021/01/07 07:52:01;;;;;;;9.63;5.88;;;;;;;1.02;99.75;101180.94;5059656;28;20478;-63
2021/01/07 07:54:27;;;;;;;8.55;5.53;;;;;;;1.01;99.56;101181.00;5058722;28;20049;-63
2021/01/07 07:57:00;;;;;;;10.57;5.88;;;;;;;0.99;99.96;101188.16;5060698;28;20057;-63
2021/01/07 07:59:27;;;;;;;8.70;5.53;;;;;;;1.08;99.90;101190.41;5059501;28;20501;-63
2021/01/07 08:01:54;;;;;;;14.38;6.38;;;;;;;1.17;99.85;101189.16;5044189;28;20040;-63
2021/01/07 08:04:22;;;;;;;9.93;6.03;;;;;;;1.19;99.72;101203.19;5058445;28;20044;-63
2021/01/07 08:06:49;;;;;;;9.63;5.78;;;;;;;1.12;99.75;101193.78;5061664;28;20155;-63
2021/01/07 08:09:17;;;;;;;10.10;5.47;;;;;;;1.20;99.96;101189.00;5059682;28;20057;-65
2021/01/07 08:11:45;;;;;;;12.48;5.57;;;;;;;1.26;99.47;101194.03;5063202;28;20071;-64
2021/01/07 08:14:15;;;;;;;7.47;4.90;;;;;;;1.22;99.73;101192.44;5062497;28;20842;-64
2021/01/07 08:16:41;;;;;;;8.40;5.32;;;;;;;1.27;100.00;101194.91;5061597;28;20053;-64
2021/01/07 08:19:24;;;;;;;10.93;5.53;;;;;;;1.30;99.51;101200.09;5060340;28;20053;-64
2021/01/07 08:21:52;;;;;;;9.52;4.78;;;;;;;1.31;99.70;101189.41;5061983;28;20401;-64
2021/01/07 08:24:20;;;;;;;9.25;5.28;;;;;;;1.39;99.85;101199.66;5060557;28;20501;-64
2021/01/07 08:27:05;;;;;;;9.02;4.90;;;;;;;1.36;100.00;101202.47;5060698;28;20048;-65
2021/01/07 08:29:36;;;;;;;9.73;4.82;;;;;;;1.35;99.57;101201.56;5062180;28;20074;-64
2021/01/07 08:32:04;;;;;;;9.60;5.00;;;;;;;1.36;99.77;101198.00;5058617;28;20068;-64
2021/01/07 08:34:31;;;;;;;6.97;4.53;;;;;;;1.39;99.56;101197.84;5059611;28;20546;-64
2021/01/07 08:37:07;;;;;;;9.75;4.40;;;;;;;1.49;99.53;101194.81;5060794;28;20053;-64
2021/01/07 08:39:36;;;;;;;7.45;4.30;;;;;;;1.50;100.00;101197.41;5058678;28;20459;-64
2021/01/07 08:42:03;;;;;;;8.95;4.07;;;;;;;1.48;99.85;101193.09;5058863;28;20056;-64
2021/01/07 08:44:29;;;;;;;6.85;3.92;;;;;;;1.55;100.00;101199.84;5062719;28;20049;-64
2021/01/07 08:46:56;;;;;;;7.40;3.42;;;;;;;1.56;100.00;101196.22;5060292;28;20472;-64
2021/01/07 08:49:22;;;;;;;5.78;3.85;;;;;;;1.53;100.00;101191.06;5059707;28;20054;-64
2021/01/07 08:51:49;;;;;;;5.60;3.33;;;;;;;1.51;100.00;101193.78;5059913;28;20056;-65
2021/01/07 08:54:16;;;;;;;6.07;3.70;;;;;;;1.49;100.00;101198.31;5060424;28;20441;-64
2021/01/07 08:56:44;;;;;;;6.45;3.53;;;;;;;1.53;100.00;101191.94;5059786;28;20063;-65
2021/01/07 08:59:20;;;;;;;7.13;3.65;;;;;;;1.64;100.00;101188.78;5061354;28;20201;-64
2021/01/07 09:01:47;;;;;;;9.40;3.45;;;;;;;1.62;99.79;101195.97;5061523;28;20490;-64
2021/01/07 09:04:25;;;;;;;7.40;3.10;;;;;;;1.62;100.00;101195.09;5050693;28;20067;-65
2021/01/07 09:06:55;;;;;;;6.70;3.30;;;;;;;1.71;100.00;101192.88;5060914;28;20452;-64
2021/01/07 09:09:21;;;;;;;5.95;2.92;;;;;;;1.73;99.96;101196.31;5051395;28;25663;-63
2021/01/07 09:11:47;;;;;;;6.18;2.88;;;;;;;1.70;99.26;101192.97;5059413;28;20052;-64
2021/01/07 09:14:13;;;;;;;6.28;2.92;;;;;;;1.77;99.74;101194.41;5060279;28;20104;-63
2021/01/07 09:16:39;;;;;;;5.32;2.80;;;;;;;1.77;99.30;101198.84;5058988;28;20053;-64
2021/01/07 09:19:05;;;;;;;5.35;2.88;;;;;;;1.86;99.50;101195.78;5060870;28;20052;-64
2021/01/07 09:21:33;;;;;;;5.78;2.53;;;;;;;1.85;99.10;101202.00;5060713;28;20045;-64
2021/01/07 09:23:59;;;;;;;8.48;2.92;;;;;;;1.96;99.43;101205.03;5059664;28;20510;-64
2021/01/07 09:26:29;;;;;;;6.07;2.97;;;;;;;1.94;99.58;101201.56;5058834;28;20049;-63
2021/01/07 09:28:55;;;;;;;7.47;3.20;;;;;;;1.89;99.27;101207.09;5057367;28;20044;-64
2021/01/07 09:34:14;;;;;;;4.38;2.30;;;;;;;2.06;99.55;101194.81;5052446;22;20042;-64
2021/01/07 09:36:41;;;;;;;4.78;2.38;;;;;;;2.13;99.53;101195.41;5040107;28;20379;-63
2021/01/07 09:39:07;;;;;;;3.97;2.80;;;;;;;2.12;99.57;101197.19;5039841;28;20053;-64
2021/01/07 09:41:32;;;;;;;5.93;2.80;;;;;;;2.19;99.32;101195.94;5039300;28;20045;-64
2021/01/07 09:43:58;;;;;;;2.60;1.88;;;;;;;2.16;99.18;101203.22;5038578;28;20132;-63
2021/01/07 09:46:24;;;;;;;4.75;2.10;;;;;;;2.20;99.08;101197.66;5036817;28;20078;-64
2021/01/07 09:48:50;;;;;;;2.85;1.85;;;;;;;2.30;98.51;101194.56;5039280;28;20045;-64
2021/01/07 09:51:16;;;;;;;2.83;1.75;;;;;;;2.26;98.92;101192.06;5037571;28;20409;-64
2021/01/07 09:53:43;;;;;;;3.30;1.77;;;;;;;2.20;98.23;101195.00;5037992;28;20373;-64
2021/01/07 09:56:09;;;;;;;2.85;1.70;;;;;;;2.29;98.62;101196.38;5037303;28;20041;-64
2021/01/07 09:58:35;;;;;;;2.83;1.80;;;;;;;2.29;98.33;101196.38;5037957;28;20052;-64
2021/01/07 10:01:01;;;;;;;2.90;1.85;;;;;;;2.28;98.86;101200.84;5038561;28;20100;-64
2021/01/07 10:03:27;;;;;;;2.60;1.73;;;;;;;2.36;98.81;101192.47;5036026;28;20053;-64
2021/01/07 10:05:52;;;;;;;3.25;2.15;;;;;;;2.32;98.77;101190.91;5037591;28;20054;-64
2021/01/07 10:11:23;;;;;;;4.22;1.95;;;;;;;2.21;97.90;101193.22;5035710;23;20518;-64
2021/01/07 10:13:49;;;;;;;3.00;1.92;;;;;;;2.23;98.19;101196.66;5010678;28;20050;-64
2021/01/07 10:16:15;;;;;;;2.97;1.77;;;;;;;2.23;98.78;101191.34;5019955;28;20048;-64
2021/01/07 10:18:42;;;;;;;3.92;2.08;;;;;;;2.26;98.16;101185.91;5019726;28;20053;-64
2021/01/07 10:21:10;;;;;;;3.65;2.00;;;;;;;2.27;98.13;101192.94;5018428;28;20054;-64
2021/01/07 10:23:40;;;;;;;4.63;2.17;;;;;;;2.31;98.77;101191.81;5018091;28;20057;-63
2021/01/07 10:26:06;;;;;;;3.00;2.15;;;;;;;2.26;98.80;101181.44;5019640;28;20060;-64
2021/01/07 10:28:32;;;;;;;3.80;2.08;;;;;;;2.26;97.94;101181.44;5020834;28;20046;-64
2021/01/07 10:30:58;;;;;;;4.38;2.00;;;;;;;2.34;98.77;101191.72;5017604;28;20068;-64
2021/01/07 10:33:25;;;;;;;3.25;1.60;;;;;;;2.42;98.79;101186.84;5015382;28;20057;-64
2021/01/07 10:35:51;;;;;;;3.85;1.80;;;;;;;2.43;98.32;101183.28;5016316;28;20054;-64
2021/01/07 10:38:22;;;;;;;2.33;1.83;;;;;;;2.39;97.88;101175.53;5019704;28;20061;-64
2021/01/07 10:40:50;;;;;;;3.67;1.42;;;;;;;2.44;98.15;101173.50;5016416;28;20133;-64
2021/01/07 10:43:20;;;;;;;2.40;1.50;;;;;;;2.54;97.66;101168.59;5018576;28;20069;-64
2021/01/07 10:45:50;;;;;;;4.10;1.63;;;;;;;2.57;98.53;101166.63;5017481;28;20062;-63
2021/01/07 10:48:19;;;;;;;6.03;1.50;;;;;;;2.62;98.40;101167.28;5018863;28;20088;-64
2021/01/07 10:50:46;;;;;;;2.90;1.60;;;;;;;2.66;97.52;101165.31;5019489;28;20077;-64
2021/01/07 10:53:29;;;;;;;2.25;1.30;;;;;;;2.61;97.86;101160.22;5017880;28;20046;-64
2021/01/07 10:56:03;;;;;;;1.52;0.95;;;;;;;2.53;97.24;101162.44;5017619;28;20042;-64
2021/01/07 10:58:47;;;;;;;1.90;1.10;;;;;;;2.54;97.69;101157.97;5019303;28;20049;-63
2021/01/07 11:01:29;;;;;;;3.85;1.30;;;;;;;2.54;98.12;101152.66;5014962;28;20045;-64
2021/01/07 11:04:17;;;;;;;3.35;0.95;;;;;;;2.49;97.31;101147.56;5018506;28;20064;-63
2021/01/07 11:06:50;;;;;;;1.58;1.00;;;;;;;2.50;98.23;101153.75;5018667;28;20061;-63
2021/01/07 11:09:21;;;;;;;2.55;1.15;;;;;;;2.51;97.53;101142.19;5016421;28;20053;-64
2021/01/07 11:14:25;;;;;;;2.38;1.20;;;;;;;2.52;97.86;101138.56;5033258;23;20059;-64
2021/01/07 11:16:57;;;;;;;4.28;1.02;;;;;;;2.54;97.81;101132.25;5038172;28;20045;-64
2021/01/07 11:19:24;;;;;;;4.20;1.00;;;;;;;2.52;98.38;101127.94;5037609;28;20049;-63
2021/01/07 11:21:55;;;;;;;1.85;0.90;;;;;;;2.51;98.35;101131.56;5036632;28;20494;-64
2021/01/07 11:24:23;;;;;;;6.97;1.38;;;;;;;2.48;97.87;101119.28;5037546;28;20158;-64
2021/01/07 11:26:49;;;;;;;2.67;1.10;;;;;;;2.52;98.08;101128.81;5039466;28;20564;-64
2021/01/07 11:29:16;;;;;;;3.40;0.90;;;;;;;2.58;98.40;101125.00;5040135;28;20068;-64
2021/01/07 11:31:44;;;;;;;3.63;1.42;;;;;;;2.59;98.08;101119.59;5039598;28;20052;-64
2021/01/07 11:34:12;;;;;;;3.42;1.92;;;;;;;2.50;98.10;101114.72;5040254;28;20075;-64
2021/01/07 11:36:51;;;;;;;4.22;1.35;;;;;;;2.51;98.04;101110.31;5043290;28;20059;-64
2021/01/07 11:39:20;;;;;;;;;;;;;;;2.57;98.15;101110.84;5040722;28;20060;-64
2021/01/07 11:41:55;;;;;;;4.32;1.80;;;;;;;2.55;97.94;101110.06;5041358;28;19921;-64
2021/01/07 11:44:35;;;;;;;4.78;1.90;;;;;;;2.55;98.17;101114.53;5040337;28;20081;-64
2021/01/07 11:47:05;;;;;;;;;;;;;;;2.58;98.12;101111.72;5043493;28;20045;-64